ENST/SSJ METAR and TAF weather

Enter ICAO airport designator
Station Type Date Time Source
ENST METAR 2021/05/14 04:20 UTC NOAA

ENST 140420Z 03009KT 9999 SCT025 BKN035 08/05 Q1011 RMK WIND 300FT 05007KT


Station Type Date Time Source
ENST Decoded METAR 2021/05/14 04:20 UTC NOAA

Sandnessjoen / Stokka, Norway (ENST) 65-58N 012-28E 17M
May 14, 2021 - 12:20 AM EDT / 2021.05.14 0420 UTC
Wind: from the NNE (030 degrees) at 10 MPH (9 KT):0
Visibility: greater than 7 mile(s):0
Sky conditions: mostly cloudy
Temperature: 46 F (8 C)
Dew Point: 41 F (5 C)
Relative Humidity: 81%
Pressure (altimeter): 29.85 in. Hg (1011 hPa)
ob: ENST 140420Z 03009KT 9999 SCT025 BKN035 08/05 Q1011 RMK WIND 300FT 05007KT
cycle: 4

Station Type Date Time Source
ENST TAF UTC NOAA

Error!

Example: see airport list